createdAt,value
2019-05-14T00:00:21.633Z,8.85
2019-05-14T00:02:56.743Z,8.80
2019-05-14T00:05:32.217Z,9.45
2019-05-14T00:08:06.375Z,11.30
2019-05-14T00:13:15.321Z,10.63
2019-05-14T00:18:22.576Z,10.10
2019-05-14T00:20:56.440Z,9.48
2019-05-14T00:23:31.956Z,9.80
2019-05-14T00:26:05.977Z,9.85
2019-05-14T00:28:42.303Z,9.90
2019-05-14T00:31:16.372Z,10.15
2019-05-14T00:33:51.261Z,10.23
2019-05-14T00:36:25.402Z,9.95
2019-05-14T00:39:01.667Z,10.85
2019-05-14T00:41:35.030Z,11.15
2019-05-14T00:46:41.893Z,6.55
2019-05-14T00:49:15.714Z,5.47
2019-05-14T00:51:51.738Z,5.75
2019-05-14T00:54:25.101Z,6.35
2019-05-14T00:57:01.350Z,5.60
2019-05-14T00:59:34.691Z,5.05
2019-05-14T01:02:08.490Z,4.65
2019-05-14T01:04:42.987Z,4.70
2019-05-14T01:07:17.433Z,5.00
2019-05-14T01:09:52.384Z,4.90
2019-05-14T01:12:26.645Z,4.47
2019-05-14T01:17:35.225Z,4.30
2019-05-14T01:20:09.551Z,3.80
2019-05-14T01:22:43.433Z,3.98
2019-05-14T01:25:17.379Z,3.58
2019-05-14T01:27:51.769Z,3.42
2019-05-14T01:30:25.850Z,3.58
2019-05-14T01:33:01.791Z,3.40
2019-05-14T01:35:35.368Z,3.50
2019-05-14T01:38:11.362Z,3.42
2019-05-14T01:40:45.015Z,3.50
2019-05-14T01:43:18.948Z,3.50
2019-05-14T01:45:52.837Z,3.40
2019-05-14T01:48:26.703Z,2.98
2019-05-14T01:51:01.494Z,2.90
2019-05-14T01:53:35.713Z,2.80
2019-05-14T01:56:11.825Z,3.17
2019-05-14T01:58:45.148Z,3.15
2019-05-14T02:01:21.683Z,3.33
2019-05-14T02:03:54.547Z,3.08
2019-05-14T02:06:28.367Z,3.12
2019-05-14T02:09:02.213Z,3.08
2019-05-14T02:11:36.137Z,2.50
2019-05-14T02:14:11.609Z,2.37
2019-05-14T02:16:45.713Z,2.62
2019-05-14T02:19:19.545Z,2.42
2019-05-14T02:21:53.382Z,2.10
2019-05-14T02:24:27.284Z,2.25
2019-05-14T02:32:10.442Z,2.12
2019-05-14T02:34:44.779Z,2.15
2019-05-14T02:37:19.459Z,2.15
2019-05-14T02:39:53.568Z,2.33
2019-05-14T02:42:28.989Z,2.30
2019-05-14T02:45:03.132Z,2.40
2019-05-14T02:52:45.000Z,2.52
2019-05-14T03:00:29.731Z,2.20
2019-05-14T03:03:02.280Z,2.47
2019-05-14T03:05:36.215Z,2.25
2019-05-14T03:08:10.215Z,2.27
2019-05-14T03:13:20.241Z,2.55
2019-05-14T03:15:54.888Z,2.30
2019-05-14T03:18:29.765Z,2.90
2019-05-14T03:21:04.004Z,2.70
2019-05-14T03:26:52.321Z,2.62
2019-05-14T03:32:02.754Z,2.87
2019-05-14T03:34:42.018Z,2.70
2019-05-14T03:37:13.482Z,2.60
2019-05-14T03:39:49.355Z,2.35
2019-05-14T03:42:23.144Z,2.52
2019-05-14T03:44:59.781Z,2.30
2019-05-14T03:47:32.702Z,2.50
2019-05-14T03:50:10.276Z,2.62
2019-05-14T03:52:43.031Z,2.33
2019-05-14T03:57:50.395Z,2.50
2019-05-14T04:00:50.009Z,2.55
2019-05-14T04:03:24.472Z,2.22
2019-05-14T04:06:00.098Z,2.33
2019-05-14T04:08:35.317Z,2.45
2019-05-14T04:11:10.406Z,2.25
2019-05-14T04:13:49.428Z,1.85
2019-05-14T04:16:23.817Z,1.90
2019-05-14T04:19:00.589Z,2.58
2019-05-14T04:21:39.817Z,2.20
2019-05-14T04:24:14.361Z,2.08
2019-05-14T04:27:02.542Z,1.70
2019-05-14T04:29:30.669Z,1.82
2019-05-14T04:32:04.943Z,1.50
2019-05-14T04:37:14.768Z,1.60
2019-05-14T04:39:50.447Z,1.42
2019-05-14T04:42:24.242Z,1.60
2019-05-14T04:45:00.859Z,1.52
2019-05-14T04:47:37.344Z,1.65
2019-05-14T04:50:10.685Z,1.60
2019-05-14T04:52:44.987Z,1.80
2019-05-14T04:55:20.405Z,1.62
2019-05-14T04:57:54.570Z,1.40
2019-05-14T05:03:03.323Z,1.67
2019-05-14T05:05:39.421Z,1.57
2019-05-14T05:08:14.537Z,1.40
2019-05-14T05:10:49.431Z,1.60
2019-05-14T05:13:23.655Z,1.35
2019-05-14T05:15:59.495Z,1.50
2019-05-14T05:18:33.418Z,1.55
2019-05-14T05:21:08.664Z,1.10
2019-05-14T05:23:42.647Z,1.42
2019-05-14T05:26:18.475Z,1.30
2019-05-14T05:29:05.545Z,1.02
2019-05-14T05:31:29.013Z,1.65
2019-05-14T05:34:02.883Z,1.20
2019-05-14T05:36:38.059Z,1.42
2019-05-14T05:39:12.386Z,1.40
2019-05-14T05:41:46.409Z,1.85
2019-05-14T05:46:53.255Z,1.00
2019-05-14T05:49:29.162Z,1.25
2019-05-14T05:52:02.756Z,1.37
2019-05-14T05:54:38.421Z,1.40
2019-05-14T05:57:12.288Z,1.40
2019-05-14T05:59:48.500Z,1.20
2019-05-14T06:02:21.766Z,1.45
2019-05-14T06:04:55.678Z,1.32
2019-05-14T06:07:29.716Z,1.60
2019-05-14T06:10:03.786Z,1.40
2019-05-14T06:15:14.397Z,1.17
2019-05-14T06:17:50.333Z,1.20
2019-05-14T06:20:24.355Z,1.60
2019-05-14T06:22:58.877Z,1.82
2019-05-14T06:25:32.971Z,1.70
2019-05-14T06:28:08.669Z,1.60
2019-05-14T06:30:43.023Z,1.15
2019-05-14T06:33:19.425Z,1.37
2019-05-14T06:35:52.540Z,1.50
2019-05-14T06:38:26.362Z,1.70
2019-05-14T06:41:00.595Z,1.50
2019-05-14T06:43:34.428Z,1.70
2019-05-14T06:46:09.027Z,1.20
2019-05-14T06:48:43.072Z,1.30
2019-05-14T06:51:19.554Z,1.30
2019-05-14T06:53:52.637Z,1.17
2019-05-14T06:56:28.277Z,1.20
2019-05-14T06:59:02.157Z,1.75
2019-05-14T07:01:38.283Z,1.40
2019-05-14T07:04:11.752Z,1.40
2019-05-14T07:06:48.282Z,1.30
2019-05-14T07:09:21.730Z,1.30
2019-05-14T07:11:58.314Z,1.10
2019-05-14T07:14:31.439Z,1.40
2019-05-14T07:17:05.382Z,1.17
2019-05-14T07:19:39.223Z,1.20
2019-05-14T07:22:13.511Z,1.10
2019-05-14T07:24:49.593Z,1.02
2019-05-14T07:27:23.130Z,1.12
2019-05-14T07:29:58.301Z,1.50
2019-05-14T07:32:32.546Z,1.55
2019-05-14T07:35:09.132Z,1.20
2019-05-14T07:37:43.241Z,1.25
2019-05-14T07:42:52.106Z,1.17
2019-05-14T07:45:25.960Z,1.00
2019-05-14T07:47:59.760Z,1.15
2019-05-14T07:50:33.685Z,1.20
2019-05-14T07:58:15.650Z,1.15
2019-05-14T08:00:49.688Z,1.20
2019-05-14T08:03:24.936Z,1.15
2019-05-14T08:06:00.347Z,1.07
2019-05-14T08:08:34.305Z,1.25
2019-05-14T08:13:42.857Z,1.07
2019-05-14T08:21:24.602Z,1.30
2019-05-14T08:23:59.280Z,1.00
2019-05-14T08:26:33.463Z,1.10
2019-05-14T08:34:15.169Z,1.30
2019-05-14T08:36:49.136Z,1.47
2019-05-14T08:42:03.128Z,1.05
2019-05-14T08:44:31.930Z,1.30
2019-05-14T08:49:46.113Z,1.10
2019-05-14T08:52:16.171Z,1.40
2019-05-14T08:55:05.623Z,1.00
2019-05-14T08:57:26.067Z,0.98
2019-05-14T08:59:59.919Z,1.12
2019-05-14T09:02:33.815Z,1.02
2019-05-14T09:07:43.205Z,1.10
2019-05-14T09:10:19.353Z,1.20
2019-05-14T09:12:53.178Z,0.93
2019-05-14T09:15:28.856Z,0.90
2019-05-14T09:18:03.752Z,0.90
2019-05-14T09:20:38.294Z,1.10
2019-05-14T09:23:12.165Z,1.17
2019-05-14T09:31:01.538Z,0.95
2019-05-14T09:36:18.137Z,0.98
2019-05-14T09:38:44.444Z,1.00
2019-05-14T09:41:18.827Z,0.80
2019-05-14T09:43:53.602Z,1.00
2019-05-14T09:46:28.937Z,0.80
2019-05-14T09:49:03.198Z,0.90
2019-05-14T09:51:38.389Z,1.10
2019-05-14T09:54:12.624Z,0.80
2019-05-14T09:56:48.562Z,0.90
2019-05-14T09:59:22.172Z,0.80
2019-05-14T10:01:58.609Z,1.20
2019-05-14T10:04:33.025Z,1.42
2019-05-14T10:07:08.829Z,1.10
2019-05-14T10:09:43.127Z,1.20
2019-05-14T10:12:17.361Z,1.10
2019-05-14T10:14:51.812Z,0.90
2019-05-14T10:17:28.807Z,1.00
2019-05-14T10:20:02.093Z,1.20
2019-05-14T10:22:36.442Z,0.90
2019-05-14T10:25:12.346Z,1.35
2019-05-14T10:27:48.545Z,1.20
2019-05-14T10:30:25.848Z,1.10
2019-05-14T10:33:09.127Z,1.27
2019-05-14T10:35:39.110Z,1.47
2019-05-14T10:38:13.194Z,1.20
2019-05-14T10:40:47.177Z,1.20
2019-05-14T10:45:54.488Z,1.15
2019-05-14T10:48:29.242Z,1.50
2019-05-14T10:51:03.844Z,1.30
2019-05-14T10:53:38.126Z,1.40
2019-05-14T10:56:12.138Z,1.50
2019-05-14T10:58:46.040Z,1.60
2019-05-14T11:01:22.610Z,1.27
2019-05-14T11:03:55.870Z,1.52
2019-05-14T11:06:29.869Z,1.60
2019-05-14T11:09:05.047Z,0.95
2019-05-14T11:11:39.104Z,1.17
2019-05-14T11:16:48.571Z,1.22
2019-05-14T11:19:22.250Z,1.10
2019-05-14T11:21:57.895Z,1.27
2019-05-14T11:24:32.179Z,1.25
2019-05-14T11:29:39.639Z,1.00
2019-05-14T11:34:47.471Z,1.32
2019-05-14T11:37:21.818Z,1.10
2019-05-14T11:39:57.973Z,1.30
2019-05-14T11:42:31.796Z,1.10
2019-05-14T11:47:40.613Z,1.20
2019-05-14T11:50:15.474Z,1.02
2019-05-14T11:52:49.524Z,1.20
2019-05-14T11:55:23.405Z,1.10
2019-05-14T11:57:58.291Z,1.05
2019-05-14T12:00:32.627Z,1.02
2019-05-14T12:05:39.702Z,1.10
2019-05-14T12:10:49.511Z,1.20
2019-05-14T12:15:59.032Z,1.67
2019-05-14T12:18:32.144Z,1.52
2019-05-14T12:21:08.955Z,1.40
2019-05-14T12:23:42.251Z,1.70
2019-05-14T12:28:49.661Z,1.20
2019-05-14T12:31:23.663Z,1.62
2019-05-14T12:33:58.387Z,1.57
2019-05-14T12:36:32.520Z,1.60
2019-05-14T12:39:09.667Z,1.87
2019-05-14T12:41:43.898Z,1.20
2019-05-14T12:44:19.602Z,1.30
2019-05-14T12:46:53.790Z,1.57
2019-05-14T12:52:17.833Z,1.32
2019-05-14T12:54:38.847Z,1.65
2019-05-14T12:57:12.498Z,1.20
2019-05-14T13:02:19.908Z,2.10
2019-05-14T13:04:53.902Z,2.50
2019-05-14T13:07:27.894Z,1.32
2019-05-14T13:10:01.762Z,1.40
2019-05-14T13:12:35.628Z,1.65
2019-05-14T13:15:11.157Z,1.87
2019-05-14T13:17:45.011Z,1.70
2019-05-14T13:20:20.718Z,2.25
2019-05-14T13:22:54.694Z,1.70
2019-05-14T13:25:30.358Z,1.77
2019-05-14T13:28:04.259Z,1.80
2019-05-14T13:30:38.470Z,1.60
2019-05-14T13:33:12.498Z,1.50
2019-05-14T13:35:48.360Z,1.82
2019-05-14T13:38:22.736Z,1.57
2019-05-14T13:43:30.577Z,1.55
2019-05-14T13:46:05.231Z,1.60
2019-05-14T13:48:43.230Z,1.90
2019-05-14T13:51:14.845Z,1.80
2019-05-14T13:53:49.955Z,1.80
2019-05-14T13:56:24.306Z,1.30
2019-05-14T13:58:59.218Z,1.72
2019-05-14T14:01:33.305Z,1.27
2019-05-14T14:04:15.195Z,1.50
2019-05-14T14:06:49.618Z,1.60
2019-05-14T14:09:23.644Z,1.60
2019-05-14T14:11:58.722Z,1.50
2019-05-14T14:14:32.857Z,1.40
2019-05-14T14:17:07.140Z,1.65
2019-05-14T14:19:41.147Z,1.65
2019-05-14T14:22:15.054Z,1.80
2019-05-14T14:24:48.992Z,1.92
2019-05-14T14:27:22.968Z,1.80
2019-05-14T14:29:58.540Z,2.25
2019-05-14T14:32:32.679Z,1.98
2019-05-14T14:37:41.762Z,1.40
2019-05-14T14:40:15.902Z,2.00
2019-05-14T14:45:23.408Z,2.30
2019-05-14T14:48:01.065Z,1.80
2019-05-14T14:50:34.375Z,1.52
2019-05-14T14:53:09.375Z,1.65
2019-05-14T14:55:43.761Z,1.70
2019-05-14T14:58:20.108Z,2.00
2019-05-14T15:00:53.604Z,3.70
2019-05-14T15:03:29.521Z,2.58
2019-05-14T15:06:03.777Z,1.65
2019-05-14T15:08:39.525Z,2.70
2019-05-14T15:11:13.675Z,2.27
2019-05-14T15:13:48.407Z,1.85
2019-05-14T15:16:22.308Z,1.90
2019-05-14T15:18:58.338Z,2.10
2019-05-14T15:21:36.285Z,2.67
2019-05-14T15:24:15.359Z,1.70
2019-05-14T15:26:46.226Z,2.27
2019-05-14T15:29:20.189Z,1.77
2019-05-14T15:31:54.235Z,1.80
2019-05-14T15:34:29.649Z,1.70
2019-05-14T15:37:03.685Z,1.82
2019-05-14T15:39:39.203Z,6.78
2019-05-14T15:42:14.177Z,4.00
2019-05-14T15:44:55.358Z,2.42
2019-05-14T15:47:23.835Z,2.37
2019-05-14T15:52:32.774Z,3.22
2019-05-14T15:55:08.641Z,5.60
2019-05-14T15:57:42.673Z,4.20
2019-05-14T16:00:19.551Z,3.83
2019-05-14T16:02:52.730Z,2.60
2019-05-14T16:05:28.485Z,2.98
2019-05-14T16:08:02.501Z,3.67
2019-05-14T16:13:09.581Z,2.55
2019-05-14T16:18:21.664Z,4.70
2019-05-14T16:20:53.177Z,6.37
2019-05-14T16:23:28.189Z,2.80
2019-05-14T16:26:03.692Z,3.20
2019-05-14T16:28:39.544Z,3.50
2019-05-14T16:31:13.480Z,2.30
2019-05-14T16:33:49.276Z,4.05
2019-05-14T16:36:22.991Z,2.35
2019-05-14T16:38:58.484Z,3.30
2019-05-14T16:41:32.630Z,2.80
2019-05-14T16:46:39.774Z,2.85
2019-05-14T16:49:13.753Z,2.80
2019-05-14T16:51:49.524Z,3.15
2019-05-14T16:54:23.400Z,3.20
2019-05-14T16:56:57.262Z,2.00
2019-05-14T16:59:31.193Z,3.00
2019-05-14T17:02:05.192Z,2.62
2019-05-14T17:04:39.080Z,2.25
2019-05-14T17:07:12.901Z,1.70
2019-05-14T17:09:49.131Z,2.15
2019-05-14T17:12:23.078Z,1.67
2019-05-14T17:14:58.706Z,3.40
2019-05-14T17:17:33.116Z,1.70
2019-05-14T17:22:42.749Z,1.80
2019-05-14T17:25:26.790Z,1.77
2019-05-14T17:27:52.637Z,2.90
2019-05-14T17:33:00.680Z,2.50
2019-05-14T17:35:34.532Z,2.33
2019-05-14T17:38:09.197Z,3.77
2019-05-14T17:40:45.084Z,2.83
2019-05-14T17:43:22.887Z,3.35
2019-05-14T17:45:55.697Z,3.05
2019-05-14T17:48:29.765Z,2.50
2019-05-14T17:53:38.629Z,2.42
2019-05-14T17:56:13.008Z,2.10
2019-05-14T17:58:48.944Z,2.70
2019-05-14T18:01:23.242Z,2.10
2019-05-14T18:03:58.427Z,6.70
2019-05-14T18:06:34.401Z,2.77
2019-05-14T18:09:09.380Z,6.00
2019-05-14T18:11:44.238Z,2.65
2019-05-14T18:14:19.978Z,3.70
2019-05-14T18:16:54.441Z,2.72
2019-05-14T18:19:29.106Z,2.40
2019-05-14T18:22:03.785Z,3.05
2019-05-14T18:24:39.302Z,3.70
2019-05-14T18:27:13.828Z,4.12
2019-05-14T18:29:48.800Z,5.55
2019-05-14T18:32:22.928Z,4.97
2019-05-14T18:40:09.113Z,3.25
2019-05-14T18:42:43.290Z,2.50
2019-05-14T18:45:18.993Z,2.10
2019-05-14T18:47:53.195Z,2.45
2019-05-14T18:50:28.812Z,3.08
2019-05-14T18:53:02.891Z,7.53
2019-05-14T18:55:38.575Z,4.33
2019-05-14T18:58:12.998Z,3.22
2019-05-14T19:00:47.851Z,2.10
2019-05-14T19:03:23.112Z,2.72
2019-05-14T19:05:58.635Z,2.62
2019-05-14T19:08:33.088Z,2.50
2019-05-14T19:11:08.257Z,2.58
2019-05-14T19:13:42.567Z,2.70
2019-05-14T19:16:16.621Z,2.45
2019-05-14T19:21:24.534Z,3.10
2019-05-14T19:23:58.785Z,2.90
2019-05-14T19:26:36.731Z,4.40
2019-05-14T19:29:08.756Z,3.90
2019-05-14T19:31:44.014Z,3.05
2019-05-14T19:34:19.271Z,3.10
2019-05-14T19:36:53.328Z,3.10
2019-05-14T19:39:28.190Z,2.90
2019-05-14T19:42:02.960Z,2.65
2019-05-14T19:47:10.804Z,3.52
2019-05-14T19:49:44.869Z,3.90
2019-05-14T19:54:51.826Z,3.12
2019-05-14T19:57:25.700Z,2.87
2019-05-14T19:59:59.615Z,2.72
2019-05-14T20:02:33.514Z,3.77
2019-05-14T20:05:09.080Z,3.40
2019-05-14T20:07:43.160Z,5.37
2019-05-14T20:10:17.568Z,3.83
2019-05-14T20:12:51.528Z,9.05
2019-05-14T20:15:25.922Z,5.10
2019-05-14T20:18:00.231Z,3.98
2019-05-14T20:20:34.552Z,6.22
2019-05-14T20:23:08.522Z,2.90
2019-05-14T20:25:42.524Z,2.95
2019-05-14T20:28:19.077Z,2.80
2019-05-14T20:30:53.071Z,2.67
2019-05-14T20:33:27.087Z,2.52
2019-05-14T20:38:34.072Z,2.52
2019-05-14T20:41:08.741Z,3.12
2019-05-14T20:43:42.972Z,2.90
2019-05-14T20:46:18.545Z,3.67
2019-05-14T20:48:52.716Z,2.98
2019-05-14T20:51:28.253Z,2.60
2019-05-14T20:54:02.211Z,2.50
2019-05-14T20:59:10.098Z,3.45
2019-05-14T21:01:45.611Z,3.02
2019-05-14T21:04:20.687Z,2.50
2019-05-14T21:06:54.666Z,2.50
2019-05-14T21:12:03.617Z,2.45
2019-05-14T21:14:41.095Z,2.85
2019-05-14T21:17:13.077Z,4.37
2019-05-14T21:19:49.243Z,3.62
2019-05-14T21:22:22.874Z,3.42
2019-05-14T21:27:40.767Z,2.67
2019-05-14T21:30:06.510Z,3.02
2019-05-14T21:32:42.672Z,3.35
2019-05-14T21:35:16.407Z,2.40
2019-05-14T21:40:25.279Z,2.45
2019-05-14T21:42:59.151Z,2.52
2019-05-14T21:45:33.060Z,2.00
2019-05-14T21:48:08.642Z,2.33
2019-05-14T21:50:42.560Z,2.00
2019-05-14T21:53:18.964Z,2.10
2019-05-14T21:55:52.329Z,2.00
2019-05-14T21:58:26.480Z,1.98
2019-05-14T22:01:02.042Z,2.35
2019-05-14T22:03:35.960Z,2.37
2019-05-14T22:06:09.851Z,2.40
2019-05-14T22:08:43.662Z,1.90
2019-05-14T22:11:18.819Z,2.60
2019-05-14T22:13:53.026Z,2.20
2019-05-14T22:16:28.125Z,2.20
2019-05-14T22:19:02.380Z,2.52
2019-05-14T22:21:38.610Z,2.30
2019-05-14T22:24:11.895Z,2.60
2019-05-14T22:26:47.836Z,2.02
2019-05-14T22:29:21.336Z,2.27
2019-05-14T22:31:55.310Z,2.17
2019-05-14T22:34:29.270Z,2.62
2019-05-14T22:37:03.434Z,2.02
2019-05-14T22:39:39.036Z,2.75
2019-05-14T22:42:12.977Z,2.50
2019-05-14T22:44:50.144Z,2.52
2019-05-14T22:47:22.778Z,2.52
2019-05-14T22:49:59.143Z,2.35
2019-05-14T22:52:32.390Z,2.45
2019-05-14T22:57:40.905Z,2.33
2019-05-14T23:00:15.598Z,2.42
2019-05-14T23:02:49.678Z,2.47
2019-05-14T23:07:58.281Z,2.30
2019-05-14T23:10:32.500Z,2.90
2019-05-14T23:13:06.386Z,3.50
2019-05-14T23:15:40.278Z,2.60
2019-05-14T23:18:14.148Z,2.60
2019-05-14T23:20:49.248Z,2.22
2019-05-14T23:23:23.268Z,2.30
2019-05-14T23:25:58.912Z,2.20
2019-05-14T23:28:42.603Z,2.75
2019-05-14T23:31:08.556Z,2.40
2019-05-14T23:33:42.530Z,2.27
2019-05-14T23:36:18.332Z,2.40
2019-05-14T23:38:52.560Z,2.00
2019-05-14T23:41:28.501Z,2.50
2019-05-14T23:44:02.079Z,2.30
2019-05-14T23:46:37.355Z,2.30
2019-05-14T23:49:11.258Z,2.50
2019-05-14T23:51:45.112Z,2.00
2019-05-14T23:54:18.978Z,2.85
2019-05-14T23:56:52.839Z,2.25
2019-05-14T23:59:26.768Z,2.25
